sensor_id;sensor_type;location;lat;lon;timestamp;temperature;humidity
3055;DHT22;1537;52.018;8.542;2024-01-16T00:02:54;1.30;99.90
3055;DHT22;1537;52.018;8.542;2024-01-16T00:06:19;1.20;99.90
3055;DHT22;1537;52.018;8.542;2024-01-16T00:09:43;1.20;99.90
3055;DHT22;1537;52.018;8.542;2024-01-16T00:13:08;1.30;99.90
3055;DHT22;1537;52.018;8.542;2024-01-16T00:16:31;1.20;99.90
3055;DHT22;1537;52.018;8.542;2024-01-16T00:19:55;1.20;99.90
3055;DHT22;1537;52.018;8.542;2024-01-16T00:23:24;1.20;99.90
3055;DHT22;1537;52.018;8.542;2024-01-16T00:26:48;1.20;99.90
3055;DHT22;1537;52.018;8.542;2024-01-16T00:30:12;1.20;99.90
3055;DHT22;1537;52.018;8.542;2024-01-16T00:33:36;1.20;99.90
3055;DHT22;1537;52.018;8.542;2024-01-16T00:37:00;1.20;99.90
3055;DHT22;1537;52.018;8.542;2024-01-16T00:40:25;1.20;99.90
3055;DHT22;1537;52.018;8.542;2024-01-16T00:43:49;1.20;99.90
3055;DHT22;1537;52.018;8.542;2024-01-16T00:47:13;1.20;99.90
3055;DHT22;1537;52.018;8.542;2024-01-16T00:50:36;1.20;99.90
3055;DHT22;1537;52.018;8.542;2024-01-16T00:54:00;1.20;99.90
3055;DHT22;1537;52.018;8.542;2024-01-16T00:57:25;1.20;99.90
3055;DHT22;1537;52.018;8.542;2024-01-16T01:00:49;1.10;99.90
3055;DHT22;1537;52.018;8.542;2024-01-16T01:04:13;1.10;99.90
3055;DHT22;1537;52.018;8.542;2024-01-16T01:07:36;1.20;99.90
3055;DHT22;1537;52.018;8.542;2024-01-16T01:11:00;1.10;99.90
3055;DHT22;1537;52.018;8.542;2024-01-16T01:14:25;1.10;99.90
3055;DHT22;1537;52.018;8.542;2024-01-16T01:17:51;1.10;99.90
3055;DHT22;1537;52.018;8.542;2024-01-16T01:21:16;1.10;99.90
3055;DHT22;1537;52.018;8.542;2024-01-16T01:24:40;1.10;99.90
3055;DHT22;1537;52.018;8.542;2024-01-16T01:28:04;1.00;99.90
3055;DHT22;1537;52.018;8.542;2024-01-16T01:31:29;1.00;99.90
3055;DHT22;1537;52.018;8.542;2024-01-16T01:34:53;0.90;99.90
3055;DHT22;1537;52.018;8.542;2024-01-16T01:38:16;0.90;99.90
3055;DHT22;1537;52.018;8.542;2024-01-16T01:41:41;0.90;99.90
3055;DHT22;1537;52.018;8.542;2024-01-16T01:45:05;0.90;99.90
3055;DHT22;1537;52.018;8.542;2024-01-16T01:48:31;0.80;99.90
3055;DHT22;1537;52.018;8.542;2024-01-16T01:51:55;0.80;99.90
3055;DHT22;1537;52.018;8.542;2024-01-16T01:55:19;0.90;99.90
3055;DHT22;1537;52.018;8.542;2024-01-16T01:58:46;0.90;99.90
3055;DHT22;1537;52.018;8.542;2024-01-16T02:02:11;0.90;99.90
3055;DHT22;1537;52.018;8.542;2024-01-16T02:05:36;1.00;99.90
3055;DHT22;1537;52.018;8.542;2024-01-16T02:09:02;1.00;99.90
3055;DHT22;1537;52.018;8.542;2024-01-16T02:12:29;1.00;99.90
3055;DHT22;1537;52.018;8.542;2024-01-16T02:15:52;1.00;99.90
3055;DHT22;1537;52.018;8.542;2024-01-16T02:19:16;1.00;99.90
3055;DHT22;1537;52.018;8.542;2024-01-16T02:22:45;1.00;99.90
3055;DHT22;1537;52.018;8.542;2024-01-16T02:26:13;1.00;99.90
3055;DHT22;1537;52.018;8.542;2024-01-16T02:29:40;1.00;99.90
3055;DHT22;1537;52.018;8.542;2024-01-16T02:33:04;1.00;99.90
3055;DHT22;1537;52.018;8.542;2024-01-16T02:36:29;1.00;99.90
3055;DHT22;1537;52.018;8.542;2024-01-16T02:39:53;1.10;99.90
3055;DHT22;1537;52.018;8.542;2024-01-16T02:43:18;1.00;99.90
3055;DHT22;1537;52.018;8.542;2024-01-16T02:46:42;1.00;99.90
3055;DHT22;1537;52.018;8.542;2024-01-16T02:50:06;1.00;99.90
3055;DHT22;1537;52.018;8.542;2024-01-16T02:53:32;1.00;99.90
3055;DHT22;1537;52.018;8.542;2024-01-16T02:56:55;1.00;99.90
3055;DHT22;1537;52.018;8.542;2024-01-16T03:00:20;1.10;99.90
3055;DHT22;1537;52.018;8.542;2024-01-16T03:03:45;1.00;99.90
3055;DHT22;1537;52.018;8.542;2024-01-16T03:07:08;1.10;99.90
3055;DHT22;1537;52.018;8.542;2024-01-16T03:10:32;1.10;99.90
3055;DHT22;1537;52.018;8.542;2024-01-16T03:13:56;1.10;99.90
3055;DHT22;1537;52.018;8.542;2024-01-16T03:17:21;1.10;99.90
3055;DHT22;1537;52.018;8.542;2024-01-16T03:20:45;1.00;99.90
3055;DHT22;1537;52.018;8.542;2024-01-16T03:24:08;1.00;99.90
3055;DHT22;1537;52.018;8.542;2024-01-16T03:27:33;1.00;99.90
3055;DHT22;1537;52.018;8.542;2024-01-16T03:30:56;1.10;99.90
3055;DHT22;1537;52.018;8.542;2024-01-16T03:34:23;1.10;99.90
3055;DHT22;1537;52.018;8.542;2024-01-16T03:37:47;1.10;99.90
3055;DHT22;1537;52.018;8.542;2024-01-16T03:41:11;1.10;99.90
3055;DHT22;1537;52.018;8.542;2024-01-16T03:44:38;1.10;99.90
3055;DHT22;1537;52.018;8.542;2024-01-16T03:48:03;1.10;99.90
3055;DHT22;1537;52.018;8.542;2024-01-16T03:51:29;1.10;99.90
3055;DHT22;1537;52.018;8.542;2024-01-16T03:54:52;1.10;99.90
3055;DHT22;1537;52.018;8.542;2024-01-16T03:58:16;1.10;99.90
3055;DHT22;1537;52.018;8.542;2024-01-16T04:01:40;1.00;99.90
3055;DHT22;1537;52.018;8.542;2024-01-16T04:05:05;1.00;99.90
3055;DHT22;1537;52.018;8.542;2024-01-16T04:08:30;1.00;99.90
3055;DHT22;1537;52.018;8.542;2024-01-16T04:11:54;1.00;99.90
3055;DHT22;1537;52.018;8.542;2024-01-16T04:15:18;0.90;99.90
3055;DHT22;1537;52.018;8.542;2024-01-16T04:18:45;0.90;99.90
3055;DHT22;1537;52.018;8.542;2024-01-16T04:22:08;0.90;99.90
3055;DHT22;1537;52.018;8.542;2024-01-16T04:25:33;0.90;99.90
3055;DHT22;1537;52.018;8.542;2024-01-16T04:28:57;1.00;99.90
3055;DHT22;1537;52.018;8.542;2024-01-16T04:32:20;1.00;99.90
3055;DHT22;1537;52.018;8.542;2024-01-16T04:35:44;1.00;99.90
3055;DHT22;1537;52.018;8.542;2024-01-16T04:39:08;1.00;99.90
3055;DHT22;1537;52.018;8.542;2024-01-16T04:42:33;1.00;99.90
3055;DHT22;1537;52.018;8.542;2024-01-16T04:45:57;0.90;99.90
3055;DHT22;1537;52.018;8.542;2024-01-16T04:49:25;1.00;99.90
3055;DHT22;1537;52.018;8.542;2024-01-16T04:52:49;1.00;99.90
3055;DHT22;1537;52.018;8.542;2024-01-16T04:56:15;0.90;99.90
3055;DHT22;1537;52.018;8.542;2024-01-16T04:59:40;0.90;99.90
3055;DHT22;1537;52.018;8.542;2024-01-16T05:03:05;0.90;99.90
3055;DHT22;1537;52.018;8.542;2024-01-16T05:06:29;0.80;99.90
3055;DHT22;1537;52.018;8.542;2024-01-16T05:09:53;0.90;99.90
3055;DHT22;1537;52.018;8.542;2024-01-16T05:13:17;0.90;99.90
3055;DHT22;1537;52.018;8.542;2024-01-16T05:16:42;0.90;99.90
3055;DHT22;1537;52.018;8.542;2024-01-16T05:20:07;0.70;99.90
3055;DHT22;1537;52.018;8.542;2024-01-16T05:23:32;0.80;99.90
3055;DHT22;1537;52.018;8.542;2024-01-16T05:26:56;0.80;99.90
3055;DHT22;1537;52.018;8.542;2024-01-16T05:30:20;0.90;99.90
3055;DHT22;1537;52.018;8.542;2024-01-16T05:33:45;0.90;99.90
3055;DHT22;1537;52.018;8.542;2024-01-16T05:37:08;1.00;99.90
3055;DHT22;1537;52.018;8.542;2024-01-16T05:40:33;1.00;99.90
3055;DHT22;1537;52.018;8.542;2024-01-16T05:43:56;1.00;99.90
3055;DHT22;1537;52.018;8.542;2024-01-16T05:47:20;1.00;99.90
3055;DHT22;1537;52.018;8.542;2024-01-16T05:50:47;1.00;99.90
3055;DHT22;1537;52.018;8.542;2024-01-16T05:54:11;1.00;99.90
3055;DHT22;1537;52.018;8.542;2024-01-16T05:57:35;1.00;99.90
3055;DHT22;1537;52.018;8.542;2024-01-16T06:00:59;1.00;99.90
3055;DHT22;1537;52.018;8.542;2024-01-16T06:04:23;1.00;99.90
3055;DHT22;1537;52.018;8.542;2024-01-16T06:07:48;1.00;99.90
3055;DHT22;1537;52.018;8.542;2024-01-16T06:11:11;1.00;99.90
3055;DHT22;1537;52.018;8.542;2024-01-16T06:14:36;1.00;99.90
3055;DHT22;1537;52.018;8.542;2024-01-16T06:18:00;1.10;99.90
3055;DHT22;1537;52.018;8.542;2024-01-16T06:21:24;1.00;99.90
3055;DHT22;1537;52.018;8.542;2024-01-16T06:24:50;1.00;99.90
3055;DHT22;1537;52.018;8.542;2024-01-16T06:28:13;1.00;99.90
3055;DHT22;1537;52.018;8.542;2024-01-16T06:31:37;1.00;99.90
3055;DHT22;1537;52.018;8.542;2024-01-16T06:35:01;1.00;99.90
3055;DHT22;1537;52.018;8.542;2024-01-16T06:38:25;1.00;99.90
3055;DHT22;1537;52.018;8.542;2024-01-16T06:41:50;1.00;99.90
3055;DHT22;1537;52.018;8.542;2024-01-16T06:45:13;1.00;99.90
3055;DHT22;1537;52.018;8.542;2024-01-16T06:48:38;1.10;99.90
3055;DHT22;1537;52.018;8.542;2024-01-16T06:52:02;1.00;99.90
3055;DHT22;1537;52.018;8.542;2024-01-16T06:55:26;1.00;99.90
3055;DHT22;1537;52.018;8.542;2024-01-16T06:58:51;1.00;99.90
3055;DHT22;1537;52.018;8.542;2024-01-16T07:02:14;0.90;99.90
3055;DHT22;1537;52.018;8.542;2024-01-16T07:05:38;1.00;99.90
3055;DHT22;1537;52.018;8.542;2024-01-16T07:09:03;1.00;99.90
3055;DHT22;1537;52.018;8.542;2024-01-16T07:12:28;1.00;99.90
3055;DHT22;1537;52.018;8.542;2024-01-16T07:15:53;0.90;99.90
3055;DHT22;1537;52.018;8.542;2024-01-16T07:19:16;0.90;99.90
3055;DHT22;1537;52.018;8.542;2024-01-16T07:22:40;0.90;99.90
3055;DHT22;1537;52.018;8.542;2024-01-16T07:26:04;0.90;99.90
3055;DHT22;1537;52.018;8.542;2024-01-16T07:29:28;1.00;99.90
3055;DHT22;1537;52.018;8.542;2024-01-16T07:32:53;1.00;99.90
3055;DHT22;1537;52.018;8.542;2024-01-16T07:36:17;1.10;99.90
3055;DHT22;1537;52.018;8.542;2024-01-16T07:39:41;1.10;99.90
3055;DHT22;1537;52.018;8.542;2024-01-16T07:43:04;1.10;99.90
3055;DHT22;1537;52.018;8.542;2024-01-16T07:46:28;1.10;99.90
3055;DHT22;1537;52.018;8.542;2024-01-16T07:49:53;1.10;99.90
3055;DHT22;1537;52.018;8.542;2024-01-16T07:53:17;1.20;99.90
3055;DHT22;1537;52.018;8.542;2024-01-16T07:56:40;1.10;99.90
3055;DHT22;1537;52.018;8.542;2024-01-16T08:00:05;1.20;99.90
3055;DHT22;1537;52.018;8.542;2024-01-16T08:03:34;1.10;99.90
3055;DHT22;1537;52.018;8.542;2024-01-16T08:06:59;1.20;99.90
3055;DHT22;1537;52.018;8.542;2024-01-16T08:10:22;1.20;99.90
3055;DHT22;1537;52.018;8.542;2024-01-16T08:13:47;1.20;99.90
3055;DHT22;1537;52.018;8.542;2024-01-16T08:17:10;1.20;99.90
3055;DHT22;1537;52.018;8.542;2024-01-16T08:20:34;1.20;99.90
3055;DHT22;1537;52.018;8.542;2024-01-16T08:23:59;1.20;99.90
3055;DHT22;1537;52.018;8.542;2024-01-16T08:27:23;1.10;99.90
3055;DHT22;1537;52.018;8.542;2024-01-16T08:30:47;1.20;99.90
3055;DHT22;1537;52.018;8.542;2024-01-16T08:34:10;1.20;99.90
3055;DHT22;1537;52.018;8.542;2024-01-16T08:37:34;1.20;99.90
3055;DHT22;1537;52.018;8.542;2024-01-16T08:40:59;1.20;99.90
3055;DHT22;1537;52.018;8.542;2024-01-16T08:44:23;1.20;99.90
3055;DHT22;1537;52.018;8.542;2024-01-16T08:47:46;1.20;99.90
3055;DHT22;1537;52.018;8.542;2024-01-16T08:51:11;1.30;99.90
3055;DHT22;1537;52.018;8.542;2024-01-16T08:54:36;1.30;99.90
3055;DHT22;1537;52.018;8.542;2024-01-16T08:58:01;1.30;99.90
3055;DHT22;1537;52.018;8.542;2024-01-16T09:01:25;1.40;99.90
3055;DHT22;1537;52.018;8.542;2024-01-16T09:04:48;1.40;99.90
3055;DHT22;1537;52.018;8.542;2024-01-16T09:08:13;1.40;99.90
3055;DHT22;1537;52.018;8.542;2024-01-16T09:11:36;1.60;99.90
3055;DHT22;1537;52.018;8.542;2024-01-16T09:15:01;1.50;99.90
3055;DHT22;1537;52.018;8.542;2024-01-16T09:18:25;1.50;99.90
3055;DHT22;1537;52.018;8.542;2024-01-16T09:21:49;1.50;99.90
3055;DHT22;1537;52.018;8.542;2024-01-16T09:25:13;1.40;99.90
3055;DHT22;1537;52.018;8.542;2024-01-16T09:28:37;1.40;99.90
3055;DHT22;1537;52.018;8.542;2024-01-16T09:32:03;1.50;99.90
3055;DHT22;1537;52.018;8.542;2024-01-16T09:35:27;1.50;99.90
3055;DHT22;1537;52.018;8.542;2024-01-16T09:38:50;1.50;99.90
3055;DHT22;1537;52.018;8.542;2024-01-16T09:42:15;1.50;99.90
3055;DHT22;1537;52.018;8.542;2024-01-16T09:45:39;1.50;99.90
3055;DHT22;1537;52.018;8.542;2024-01-16T09:49:05;1.50;99.90
3055;DHT22;1537;52.018;8.542;2024-01-16T09:52:29;1.50;99.90
3055;DHT22;1537;52.018;8.542;2024-01-16T09:55:54;1.50;99.90
3055;DHT22;1537;52.018;8.542;2024-01-16T09:59:22;1.50;99.90
3055;DHT22;1537;52.018;8.542;2024-01-16T10:02:46;1.50;99.90
3055;DHT22;1537;52.018;8.542;2024-01-16T10:06:12;1.50;99.90
3055;DHT22;1537;52.018;8.542;2024-01-16T10:09:38;1.50;99.90
3055;DHT22;1537;52.018;8.542;2024-01-16T10:13:02;1.50;99.90
3055;DHT22;1537;52.018;8.542;2024-01-16T10:16:55;1.50;99.90
3055;DHT22;1537;52.018;8.542;2024-01-16T10:20:31;1.50;99.90
3055;DHT22;1537;52.018;8.542;2024-01-16T10:24:10;1.50;99.90
3055;DHT22;1537;52.018;8.542;2024-01-16T10:27:34;1.40;99.90
3055;DHT22;1537;52.018;8.542;2024-01-16T10:31:02;1.50;99.90
3055;DHT22;1537;52.018;8.542;2024-01-16T10:34:26;1.50;99.90
3055;DHT22;1537;52.018;8.542;2024-01-16T10:37:51;1.50;99.90
3055;DHT22;1537;52.018;8.542;2024-01-16T10:41:17;1.60;99.90
3055;DHT22;1537;52.018;8.542;2024-01-16T10:44:53;1.60;99.90
3055;DHT22;1537;52.018;8.542;2024-01-16T10:48:16;1.60;99.90
3055;DHT22;1537;52.018;8.542;2024-01-16T10:51:43;1.60;99.90
3055;DHT22;1537;52.018;8.542;2024-01-16T10:55:08;1.60;99.90
3055;DHT22;1537;52.018;8.542;2024-01-16T10:58:35;1.60;99.90
3055;DHT22;1537;52.018;8.542;2024-01-16T11:01:59;1.60;99.90
3055;DHT22;1537;52.018;8.542;2024-01-16T11:05:26;1.50;99.90
3055;DHT22;1537;52.018;8.542;2024-01-16T11:08:52;1.60;99.90
3055;DHT22;1537;52.018;8.542;2024-01-16T11:12:17;1.60;99.90
3055;DHT22;1537;52.018;8.542;2024-01-16T11:15:47;1.50;99.90
3055;DHT22;1537;52.018;8.542;2024-01-16T11:19:11;1.50;99.90
3055;DHT22;1537;52.018;8.542;2024-01-16T11:22:56;1.50;99.90
3055;DHT22;1537;52.018;8.542;2024-01-16T11:26:26;1.50;99.90
3055;DHT22;1537;52.018;8.542;2024-01-16T11:29:50;1.60;99.90
3055;DHT22;1537;52.018;8.542;2024-01-16T11:33:45;1.70;99.90
3055;DHT22;1537;52.018;8.542;2024-01-16T11:37:10;1.70;99.90
3055;DHT22;1537;52.018;8.542;2024-01-16T11:40:35;1.90;99.90
3055;DHT22;1537;52.018;8.542;2024-01-16T11:43:59;1.90;99.90
3055;DHT22;1537;52.018;8.542;2024-01-16T11:47:23;1.90;99.90
3055;DHT22;1537;52.018;8.542;2024-01-16T11:50:49;2.00;99.90
3055;DHT22;1537;52.018;8.542;2024-01-16T11:54:15;1.80;99.90
3055;DHT22;1537;52.018;8.542;2024-01-16T11:57:59;1.80;99.90
3055;DHT22;1537;52.018;8.542;2024-01-16T12:01:29;1.80;99.90
3055;DHT22;1537;52.018;8.542;2024-01-16T12:04:54;1.80;99.90
3055;DHT22;1537;52.018;8.542;2024-01-16T12:08:29;1.70;99.90
3055;DHT22;1537;52.018;8.542;2024-01-16T12:11:58;1.60;99.90
3055;DHT22;1537;52.018;8.542;2024-01-16T12:15:26;1.60;99.90
3055;DHT22;1537;52.018;8.542;2024-01-16T12:18:50;1.50;99.90
3055;DHT22;1537;52.018;8.542;2024-01-16T12:22:27;1.50;99.90
3055;DHT22;1537;52.018;8.542;2024-01-16T12:25:53;1.60;99.90
3055;DHT22;1537;52.018;8.542;2024-01-16T12:29:25;1.50;99.90
3055;DHT22;1537;52.018;8.542;2024-01-16T12:32:49;1.60;99.90
3055;DHT22;1537;52.018;8.542;2024-01-16T12:36:26;1.60;99.90
3055;DHT22;1537;52.018;8.542;2024-01-16T12:39:50;1.60;99.90
3055;DHT22;1537;52.018;8.542;2024-01-16T12:43:16;1.60;99.90
3055;DHT22;1537;52.018;8.542;2024-01-16T12:46:40;1.70;99.90
3055;DHT22;1537;52.018;8.542;2024-01-16T12:50:05;1.80;99.90
3055;DHT22;1537;52.018;8.542;2024-01-16T12:53:29;1.70;99.90
3055;DHT22;1537;52.018;8.542;2024-01-16T12:56:58;1.70;99.90
3055;DHT22;1537;52.018;8.542;2024-01-16T13:00:24;1.70;99.90
3055;DHT22;1537;52.018;8.542;2024-01-16T13:03:49;1.70;99.90
3055;DHT22;1537;52.018;8.542;2024-01-16T13:07:16;1.60;99.90
3055;DHT22;1537;52.018;8.542;2024-01-16T13:10:40;1.70;99.90
3055;DHT22;1537;52.018;8.542;2024-01-16T13:14:04;1.70;99.90
3055;DHT22;1537;52.018;8.542;2024-01-16T13:17:29;1.70;99.90
3055;DHT22;1537;52.018;8.542;2024-01-16T13:20:55;1.80;99.90
3055;DHT22;1537;52.018;8.542;2024-01-16T13:24:18;1.70;99.90
3055;DHT22;1537;52.018;8.542;2024-01-16T13:27:45;1.70;99.90
3055;DHT22;1537;52.018;8.542;2024-01-16T13:31:09;1.80;99.90
3055;DHT22;1537;52.018;8.542;2024-01-16T13:34:34;1.80;99.90
3055;DHT22;1537;52.018;8.542;2024-01-16T13:37:58;1.80;99.90
3055;DHT22;1537;52.018;8.542;2024-01-16T13:41:22;1.70;99.90
3055;DHT22;1537;52.018;8.542;2024-01-16T13:44:46;1.70;99.90
3055;DHT22;1537;52.018;8.542;2024-01-16T13:48:10;1.70;99.90
3055;DHT22;1537;52.018;8.542;2024-01-16T13:51:35;1.80;99.90
3055;DHT22;1537;52.018;8.542;2024-01-16T13:54:59;1.70;99.90
3055;DHT22;1537;52.018;8.542;2024-01-16T13:58:25;1.70;99.90
3055;DHT22;1537;52.018;8.542;2024-01-16T14:01:49;1.60;99.90
3055;DHT22;1537;52.018;8.542;2024-01-16T14:05:13;1.70;99.90
3055;DHT22;1537;52.018;8.542;2024-01-16T14:08:40;1.70;99.90
3055;DHT22;1537;52.018;8.542;2024-01-16T14:12:04;1.80;99.90
3055;DHT22;1537;52.018;8.542;2024-01-16T14:15:31;1.80;99.90
3055;DHT22;1537;52.018;8.542;2024-01-16T14:18:55;1.80;99.90
3055;DHT22;1537;52.018;8.542;2024-01-16T14:22:18;1.80;99.90
3055;DHT22;1537;52.018;8.542;2024-01-16T14:25:43;1.80;99.90
3055;DHT22;1537;52.018;8.542;2024-01-16T14:29:07;1.70;99.90
3055;DHT22;1537;52.018;8.542;2024-01-16T14:32:31;1.70;99.90
3055;DHT22;1537;52.018;8.542;2024-01-16T14:35:55;1.70;99.90
3055;DHT22;1537;52.018;8.542;2024-01-16T14:39:21;1.60;99.90
3055;DHT22;1537;52.018;8.542;2024-01-16T14:42:50;1.50;99.90
3055;DHT22;1537;52.018;8.542;2024-01-16T14:46:15;1.50;99.90
3055;DHT22;1537;52.018;8.542;2024-01-16T14:49:39;1.50;99.90
3055;DHT22;1537;52.018;8.542;2024-01-16T14:53:03;1.50;99.90
3055;DHT22;1537;52.018;8.542;2024-01-16T14:56:28;1.50;99.90
3055;DHT22;1537;52.018;8.542;2024-01-16T14:59:54;1.60;99.90
3055;DHT22;1537;52.018;8.542;2024-01-16T15:03:18;1.60;99.90
3055;DHT22;1537;52.018;8.542;2024-01-16T15:06:41;1.70;99.90
3055;DHT22;1537;52.018;8.542;2024-01-16T15:10:06;1.60;99.90
3055;DHT22;1537;52.018;8.542;2024-01-16T15:13:31;1.60;99.90
3055;DHT22;1537;52.018;8.542;2024-01-16T15:16:56;1.50;99.90
3055;DHT22;1537;52.018;8.542;2024-01-16T15:20:20;1.50;99.90
3055;DHT22;1537;52.018;8.542;2024-01-16T15:23:44;1.50;99.90
3055;DHT22;1537;52.018;8.542;2024-01-16T15:27:07;1.60;99.90
3055;DHT22;1537;52.018;8.542;2024-01-16T15:30:31;1.60;99.90
3055;DHT22;1537;52.018;8.542;2024-01-16T15:33:56;1.70;99.90
3055;DHT22;1537;52.018;8.542;2024-01-16T15:37:20;1.70;99.90
3055;DHT22;1537;52.018;8.542;2024-01-16T15:40:44;1.70;99.90
3055;DHT22;1537;52.018;8.542;2024-01-16T15:44:08;1.70;99.90
3055;DHT22;1537;52.018;8.542;2024-01-16T15:47:33;1.60;99.90
3055;DHT22;1537;52.018;8.542;2024-01-16T15:50:59;1.60;99.90
3055;DHT22;1537;52.018;8.542;2024-01-16T15:54:23;1.60;99.90
3055;DHT22;1537;52.018;8.542;2024-01-16T15:57:47;1.60;99.90
3055;DHT22;1537;52.018;8.542;2024-01-16T16:01:11;1.60;99.90
3055;DHT22;1537;52.018;8.542;2024-01-16T16:04:35;1.60;99.90
3055;DHT22;1537;52.018;8.542;2024-01-16T16:08:00;1.60;99.90
3055;DHT22;1537;52.018;8.542;2024-01-16T16:11:25;1.50;99.90
3055;DHT22;1537;52.018;8.542;2024-01-16T16:14:49;1.40;99.90
3055;DHT22;1537;52.018;8.542;2024-01-16T16:18:13;1.30;99.90
3055;DHT22;1537;52.018;8.542;2024-01-16T16:21:37;1.30;99.90
3055;DHT22;1537;52.018;8.542;2024-01-16T16:25:02;1.20;99.90
3055;DHT22;1537;52.018;8.542;2024-01-16T16:28:27;1.10;99.90
3055;DHT22;1537;52.018;8.542;2024-01-16T16:31:51;1.00;99.90
3055;DHT22;1537;52.018;8.542;2024-01-16T16:35:15;1.00;99.90
3055;DHT22;1537;52.018;8.542;2024-01-16T16:38:41;0.90;99.90
3055;DHT22;1537;52.018;8.542;2024-01-16T16:42:08;0.90;99.90
3055;DHT22;1537;52.018;8.542;2024-01-16T16:45:32;0.80;99.90
3055;DHT22;1537;52.018;8.542;2024-01-16T16:48:56;0.70;99.90
3055;DHT22;1537;52.018;8.542;2024-01-16T16:52:20;0.70;99.90
3055;DHT22;1537;52.018;8.542;2024-01-16T16:55:45;0.60;99.90
3055;DHT22;1537;52.018;8.542;2024-01-16T16:59:10;0.70;99.90
3055;DHT22;1537;52.018;8.542;2024-01-16T17:02:35;0.60;99.90
3055;DHT22;1537;52.018;8.542;2024-01-16T17:05:59;0.50;99.90
3055;DHT22;1537;52.018;8.542;2024-01-16T17:09:23;0.50;99.90
3055;DHT22;1537;52.018;8.542;2024-01-16T17:12:46;0.50;99.90
3055;DHT22;1537;52.018;8.542;2024-01-16T17:16:13;0.50;99.90
3055;DHT22;1537;52.018;8.542;2024-01-16T17:19:39;0.40;99.90
3055;DHT22;1537;52.018;8.542;2024-01-16T17:23:03;0.40;99.90
3055;DHT22;1537;52.018;8.542;2024-01-16T17:26:27;0.30;99.90
3055;DHT22;1537;52.018;8.542;2024-01-16T17:29:53;0.20;99.90
3055;DHT22;1537;52.018;8.542;2024-01-16T17:33:18;0.20;99.90
3055;DHT22;1537;52.018;8.542;2024-01-16T17:36:43;0.10;99.90
3055;DHT22;1537;52.018;8.542;2024-01-16T17:40:09;0.10;99.90
3055;DHT22;1537;52.018;8.542;2024-01-16T17:43:34;0.00;99.90
3055;DHT22;1537;52.018;8.542;2024-01-16T17:46:58;0.10;99.90
3055;DHT22;1537;52.018;8.542;2024-01-16T17:50:23;0.10;99.90
3055;DHT22;1537;52.018;8.542;2024-01-16T17:53:47;0.10;99.90
3055;DHT22;1537;52.018;8.542;2024-01-16T17:57:11;0.10;99.90
3055;DHT22;1537;52.018;8.542;2024-01-16T18:00:34;0.10;99.90
3055;DHT22;1537;52.018;8.542;2024-01-16T18:03:58;0.00;99.90
3055;DHT22;1537;52.018;8.542;2024-01-16T18:07:24;0.00;99.90
3055;DHT22;1537;52.018;8.542;2024-01-16T18:10:47;0.00;99.90
3055;DHT22;1537;52.018;8.542;2024-01-16T18:14:15;-0.10;99.90
3055;DHT22;1537;52.018;8.542;2024-01-16T18:17:40;-0.10;99.90
3055;DHT22;1537;52.018;8.542;2024-01-16T18:21:07;-0.10;99.90
3055;DHT22;1537;52.018;8.542;2024-01-16T18:24:36;-0.10;99.90
3055;DHT22;1537;52.018;8.542;2024-01-16T18:28:00;-0.20;99.90
3055;DHT22;1537;52.018;8.542;2024-01-16T18:31:24;-0.20;99.90
3055;DHT22;1537;52.018;8.542;2024-01-16T18:34:47;-0.20;99.90
3055;DHT22;1537;52.018;8.542;2024-01-16T18:38:11;-0.20;99.90
3055;DHT22;1537;52.018;8.542;2024-01-16T18:41:37;-0.30;99.90
3055;DHT22;1537;52.018;8.542;2024-01-16T18:45:01;-0.30;99.90
3055;DHT22;1537;52.018;8.542;2024-01-16T18:48:26;-0.30;99.90
3055;DHT22;1537;52.018;8.542;2024-01-16T18:51:51;-0.40;99.90
3055;DHT22;1537;52.018;8.542;2024-01-16T18:55:18;-0.40;99.90
3055;DHT22;1537;52.018;8.542;2024-01-16T18:58:44;-0.40;99.90
3055;DHT22;1537;52.018;8.542;2024-01-16T19:02:08;-0.30;99.90
3055;DHT22;1537;52.018;8.542;2024-01-16T19:05:31;-0.30;99.90
3055;DHT22;1537;52.018;8.542;2024-01-16T19:08:57;-0.30;99.90
3055;DHT22;1537;52.018;8.542;2024-01-16T19:12:21;-0.30;99.90
3055;DHT22;1537;52.018;8.542;2024-01-16T19:15:48;-0.40;99.90
3055;DHT22;1537;52.018;8.542;2024-01-16T19:19:13;-0.40;99.90
3055;DHT22;1537;52.018;8.542;2024-01-16T19:22:38;-0.40;99.90
3055;DHT22;1537;52.018;8.542;2024-01-16T19:26:02;-0.40;99.90
3055;DHT22;1537;52.018;8.542;2024-01-16T19:29:26;-0.40;99.90
3055;DHT22;1537;52.018;8.542;2024-01-16T19:32:51;-0.40;99.90
3055;DHT22;1537;52.018;8.542;2024-01-16T19:36:15;-0.50;99.90
3055;DHT22;1537;52.018;8.542;2024-01-16T19:39:39;-0.50;99.90
3055;DHT22;1537;52.018;8.542;2024-01-16T19:43:06;-0.50;99.90
3055;DHT22;1537;52.018;8.542;2024-01-16T19:46:30;-0.50;99.90
3055;DHT22;1537;52.018;8.542;2024-01-16T19:49:58;-0.60;99.90
3055;DHT22;1537;52.018;8.542;2024-01-16T19:53:23;-0.60;99.90
3055;DHT22;1537;52.018;8.542;2024-01-16T19:56:47;-0.70;99.90
3055;DHT22;1537;52.018;8.542;2024-01-16T20:00:13;-0.70;99.90
3055;DHT22;1537;52.018;8.542;2024-01-16T20:03:36;-0.80;99.90
3055;DHT22;1537;52.018;8.542;2024-01-16T20:07:05;-0.80;99.90
3055;DHT22;1537;52.018;8.542;2024-01-16T20:10:29;-0.90;99.90
3055;DHT22;1537;52.018;8.542;2024-01-16T20:13:52;-0.80;99.90
3055;DHT22;1537;52.018;8.542;2024-01-16T20:17:16;-0.80;99.90
3055;DHT22;1537;52.018;8.542;2024-01-16T20:20:42;-0.80;99.90
3055;DHT22;1537;52.018;8.542;2024-01-16T20:24:07;-0.90;99.90
3055;DHT22;1537;52.018;8.542;2024-01-16T20:27:31;-0.90;99.90
3055;DHT22;1537;52.018;8.542;2024-01-16T20:30:58;-0.80;99.90
3055;DHT22;1537;52.018;8.542;2024-01-16T20:34:35;-0.90;99.90
3055;DHT22;1537;52.018;8.542;2024-01-16T20:37:59;-0.90;99.90
3055;DHT22;1537;52.018;8.542;2024-01-16T20:41:24;-0.90;99.90
3055;DHT22;1537;52.018;8.542;2024-01-16T20:44:48;-1.00;99.90
3055;DHT22;1537;52.018;8.542;2024-01-16T20:48:12;-1.00;99.90
3055;DHT22;1537;52.018;8.542;2024-01-16T20:51:35;-1.00;99.90
3055;DHT22;1537;52.018;8.542;2024-01-16T20:54:59;-1.10;99.90
3055;DHT22;1537;52.018;8.542;2024-01-16T20:58:29;-1.10;99.90
3055;DHT22;1537;52.018;8.542;2024-01-16T21:01:53;-1.00;99.90
3055;DHT22;1537;52.018;8.542;2024-01-16T21:05:16;-1.10;99.90
3055;DHT22;1537;52.018;8.542;2024-01-16T21:08:40;-1.10;99.90
3055;DHT22;1537;52.018;8.542;2024-01-16T21:12:05;-1.10;99.90
3055;DHT22;1537;52.018;8.542;2024-01-16T21:15:30;-1.20;99.90
3055;DHT22;1537;52.018;8.542;2024-01-16T21:18:54;-1.20;99.90
3055;DHT22;1537;52.018;8.542;2024-01-16T21:22:18;-1.20;99.90
3055;DHT22;1537;52.018;8.542;2024-01-16T21:25:54;-1.10;99.90
3055;DHT22;1537;52.018;8.542;2024-01-16T21:29:18;-1.20;99.90
3055;DHT22;1537;52.018;8.542;2024-01-16T21:32:43;-1.20;99.90
3055;DHT22;1537;52.018;8.542;2024-01-16T21:36:07;-1.30;99.90
3055;DHT22;1537;52.018;8.542;2024-01-16T21:39:30;-1.30;99.90
3055;DHT22;1537;52.018;8.542;2024-01-16T21:42:55;-1.40;99.90
3055;DHT22;1537;52.018;8.542;2024-01-16T21:46:19;-1.40;99.90
3055;DHT22;1537;52.018;8.542;2024-01-16T21:49:45;-1.40;99.90
3055;DHT22;1537;52.018;8.542;2024-01-16T21:53:13;-1.30;99.90
3055;DHT22;1537;52.018;8.542;2024-01-16T21:56:37;-1.40;99.90
3055;DHT22;1537;52.018;8.542;2024-01-16T22:00:01;-1.40;99.90
3055;DHT22;1537;52.018;8.542;2024-01-16T22:03:27;-1.40;99.90
3055;DHT22;1537;52.018;8.542;2024-01-16T22:06:52;-1.30;99.90
3055;DHT22;1537;52.018;8.542;2024-01-16T22:10:17;-1.30;99.90
3055;DHT22;1537;52.018;8.542;2024-01-16T22:13:41;-1.40;99.90
3055;DHT22;1537;52.018;8.542;2024-01-16T22:17:05;-1.40;99.90
3055;DHT22;1537;52.018;8.542;2024-01-16T22:20:28;-1.40;99.90
3055;DHT22;1537;52.018;8.542;2024-01-16T22:23:56;-1.50;99.90
3055;DHT22;1537;52.018;8.542;2024-01-16T22:27:19;-1.50;99.90
3055;DHT22;1537;52.018;8.542;2024-01-16T22:30:43;-1.50;99.90
3055;DHT22;1537;52.018;8.542;2024-01-16T22:34:07;-1.50;99.90
3055;DHT22;1537;52.018;8.542;2024-01-16T22:37:31;-1.50;99.90